createdAt,value
2018-12-16T00:02:28.759Z,10.88
2018-12-16T00:04:57.663Z,11.25
2018-12-16T00:07:26.655Z,10.72
2018-12-16T00:09:57.438Z,10.80
2018-12-16T00:12:25.932Z,10.95
2018-12-16T00:14:54.468Z,10.93
2018-12-16T00:17:23.003Z,10.78
2018-12-16T00:19:52.420Z,10.80
2018-12-16T00:22:21.460Z,10.72
2018-12-16T00:24:50.679Z,10.32
2018-12-16T00:27:19.156Z,10.08
2018-12-16T00:29:47.710Z,9.80
2018-12-16T00:32:16.478Z,10.20
2018-12-16T00:34:45.107Z,10.35
2018-12-16T00:37:13.688Z,10.35
2018-12-16T00:39:42.260Z,10.10
2018-12-16T00:42:12.220Z,10.30
2018-12-16T00:44:40.755Z,9.90
2018-12-16T00:47:09.367Z,10.40
2018-12-16T00:49:38.002Z,10.00
2018-12-16T00:52:06.655Z,10.03
2018-12-16T00:54:35.212Z,10.03
2018-12-16T00:57:05.290Z,10.13
2018-12-16T00:59:33.913Z,10.00
2018-12-16T01:02:02.471Z,9.98
2018-12-16T01:04:31.097Z,10.20
2018-12-16T01:06:59.729Z,10.05
2018-12-16T01:09:28.388Z,10.15
2018-12-16T01:11:57.003Z,10.35
2018-12-16T01:14:27.489Z,9.38
2018-12-16T01:16:56.117Z,9.93
2018-12-16T01:19:24.716Z,9.78
2018-12-16T01:21:53.312Z,9.38
2018-12-16T01:24:22.010Z,9.98
2018-12-16T01:26:52.359Z,8.85
2018-12-16T01:29:20.962Z,9.65
2018-12-16T01:31:49.544Z,9.73
2018-12-16T01:34:18.532Z,9.63
2018-12-16T01:36:47.142Z,9.63
2018-12-16T01:39:15.839Z,10.10
2018-12-16T01:41:44.796Z,9.63
2018-12-16T01:44:13.410Z,9.75
2018-12-16T01:46:41.999Z,9.40
2018-12-16T01:49:11.306Z,9.53
2018-12-16T01:51:40.716Z,9.78
2018-12-16T01:54:09.289Z,9.65
2018-12-16T01:56:37.851Z,9.30
2018-12-16T01:59:06.849Z,9.70
2018-12-16T02:01:36.294Z,9.65
2018-12-16T02:04:04.908Z,9.13
2018-12-16T02:06:33.482Z,8.85
2018-12-16T02:09:02.202Z,9.38
2018-12-16T02:11:30.779Z,8.63
2018-12-16T02:13:59.552Z,8.83
2018-12-16T02:16:28.575Z,9.45
2018-12-16T02:18:56.970Z,8.63
2018-12-16T02:21:25.524Z,9.00
2018-12-16T02:23:54.039Z,8.90
2018-12-16T02:26:22.689Z,8.73
2018-12-16T02:28:51.896Z,8.73
2018-12-16T02:31:20.434Z,9.30
2018-12-16T02:33:50.470Z,8.83
2018-12-16T02:36:19.082Z,8.48
2018-12-16T02:38:47.628Z,9.10
2018-12-16T02:41:17.515Z,8.55
2018-12-16T02:43:47.674Z,9.10
2018-12-16T02:46:16.295Z,8.90
2018-12-16T02:48:45.106Z,9.00
2018-12-16T02:51:14.341Z,9.50
2018-12-16T02:53:42.960Z,8.73
2018-12-16T02:56:11.621Z,9.03
2018-12-16T02:58:40.716Z,8.38
2018-12-16T03:01:09.271Z,8.88
2018-12-16T03:03:37.924Z,8.65
2018-12-16T03:06:07.045Z,8.70
2018-12-16T03:08:37.036Z,8.68
2018-12-16T03:11:05.593Z,8.60
2018-12-16T03:13:34.107Z,8.73
2018-12-16T03:16:02.831Z,8.60
2018-12-16T03:18:31.374Z,8.75
2018-12-16T03:21:00.834Z,8.83
2018-12-16T03:23:29.575Z,8.63
2018-12-16T03:25:58.539Z,8.50
2018-12-16T03:28:27.718Z,8.20
2018-12-16T03:30:56.440Z,8.90
2018-12-16T03:33:25.473Z,8.43
2018-12-16T03:35:54.455Z,8.50
2018-12-16T03:38:23.597Z,8.90
2018-12-16T03:40:52.274Z,8.33
2018-12-16T03:43:21.938Z,8.45
2018-12-16T03:45:50.501Z,8.95
2018-12-16T03:48:19.099Z,8.25
2018-12-16T03:50:47.938Z,8.00
2018-12-16T03:53:20.037Z,8.63
2018-12-16T03:55:47.019Z,8.50
2018-12-16T03:58:15.549Z,8.33
2018-12-16T04:00:45.000Z,9.03
2018-12-16T04:03:15.095Z,8.00
2018-12-16T04:05:44.693Z,8.38
2018-12-16T04:08:13.827Z,8.35
2018-12-16T04:10:43.445Z,8.28
2018-12-16T04:13:12.096Z,8.33
2018-12-16T04:15:40.663Z,8.55
2018-12-16T04:20:51.874Z,7.85
2018-12-16T04:23:27.431Z,8.58
2018-12-16T04:25:53.307Z,7.97
2018-12-16T04:28:21.843Z,8.50
2018-12-16T04:30:51.994Z,8.40
2018-12-16T04:33:20.542Z,8.40
2018-12-16T04:35:48.963Z,8.33
2018-12-16T04:38:17.597Z,8.15
2018-12-16T04:40:47.207Z,8.45
2018-12-16T04:43:15.806Z,7.87
2018-12-16T04:45:44.364Z,8.85
2018-12-16T04:48:12.921Z,8.23
2018-12-16T04:50:41.537Z,7.92
2018-12-16T04:53:10.073Z,7.95
2018-12-16T04:55:38.681Z,7.95
2018-12-16T04:58:08.974Z,8.20
2018-12-16T05:00:38.804Z,8.15
2018-12-16T05:03:07.167Z,8.73
2018-12-16T05:05:35.815Z,7.75
2018-12-16T05:08:04.540Z,8.40
2018-12-16T05:10:33.244Z,8.80
2018-12-16T05:13:01.932Z,8.53
2018-12-16T05:15:30.818Z,8.78
2018-12-16T05:17:59.398Z,7.85
2018-12-16T05:20:28.012Z,8.10
2018-12-16T05:22:56.847Z,8.13
2018-12-16T05:25:25.349Z,8.48
2018-12-16T05:27:53.922Z,8.33
2018-12-16T05:30:23.989Z,8.50
2018-12-16T05:32:52.689Z,7.85
2018-12-16T05:35:22.673Z,7.85
2018-12-16T05:37:51.137Z,8.30
2018-12-16T05:40:19.702Z,8.58
2018-12-16T05:42:49.785Z,7.97
2018-12-16T05:45:18.416Z,8.45
2018-12-16T05:47:46.971Z,7.70
2018-12-16T05:50:15.958Z,8.13
2018-12-16T05:52:44.615Z,8.05
2018-12-16T05:55:13.119Z,8.03
2018-12-16T05:57:41.699Z,8.30
2018-12-16T06:00:10.999Z,7.53
2018-12-16T06:02:39.657Z,7.65
2018-12-16T06:05:08.324Z,7.45
2018-12-16T06:07:37.203Z,7.97
2018-12-16T06:10:06.177Z,8.20
2018-12-16T06:12:34.932Z,7.95
2018-12-16T06:15:03.565Z,7.83
2018-12-16T06:17:33.961Z,7.33
2018-12-16T06:20:02.720Z,7.83
2018-12-16T06:22:31.253Z,7.67
2018-12-16T06:25:00.199Z,7.67
2018-12-16T06:27:29.251Z,7.72
2018-12-16T06:29:59.430Z,8.05
2018-12-16T06:32:28.878Z,7.45
2018-12-16T06:34:59.157Z,7.85
2018-12-16T06:37:28.731Z,7.80
2018-12-16T06:39:58.892Z,7.60
2018-12-16T06:42:28.784Z,7.75
2018-12-16T06:44:57.280Z,7.53
2018-12-16T06:47:25.889Z,7.37
2018-12-16T06:49:54.518Z,7.92
2018-12-16T06:52:23.202Z,7.70
2018-12-16T06:54:52.112Z,8.63
2018-12-16T06:57:20.831Z,8.55
2018-12-16T06:59:49.451Z,8.13
2018-12-16T07:02:18.178Z,8.28
2018-12-16T07:04:46.809Z,8.13
2018-12-16T07:07:15.647Z,7.97
2018-12-16T07:09:44.402Z,7.92
2018-12-16T07:12:14.212Z,7.97
2018-12-16T07:14:43.188Z,8.10
2018-12-16T07:17:12.258Z,7.90
2018-12-16T07:19:40.943Z,8.20
2018-12-16T07:22:10.162Z,8.00
2018-12-16T07:24:39.486Z,7.87
2018-12-16T07:27:08.162Z,7.72
2018-12-16T07:29:36.956Z,8.45
2018-12-16T07:32:05.882Z,8.35
2018-12-16T07:34:35.016Z,7.65
2018-12-16T07:37:03.821Z,8.38
2018-12-16T07:39:32.743Z,7.92
2018-12-16T07:42:01.288Z,8.05
2018-12-16T07:44:30.027Z,7.75
2018-12-16T07:46:58.817Z,8.00
2018-12-16T07:49:27.865Z,7.78
2018-12-16T07:51:56.802Z,7.60
2018-12-16T07:54:25.676Z,8.13
2018-12-16T07:56:55.692Z,7.85
2018-12-16T07:59:25.123Z,8.00
2018-12-16T08:01:54.245Z,7.50
2018-12-16T08:04:23.007Z,7.28
2018-12-16T08:06:51.577Z,7.85
2018-12-16T08:09:20.583Z,7.47
2018-12-16T08:11:50.815Z,7.90
2018-12-16T08:14:20.828Z,7.58
2018-12-16T08:16:50.029Z,7.67
2018-12-16T08:19:18.862Z,8.30
2018-12-16T08:21:47.563Z,7.78
2018-12-16T08:24:22.931Z,7.67
2018-12-16T08:26:48.209Z,7.42
2018-12-16T08:29:16.959Z,7.45
2018-12-16T08:31:46.813Z,7.92
2018-12-16T08:34:16.607Z,7.67
2018-12-16T08:36:45.350Z,8.10
2018-12-16T08:39:14.087Z,8.05
2018-12-16T08:41:43.162Z,8.33
2018-12-16T08:44:13.806Z,8.20
2018-12-16T08:46:43.203Z,7.95
2018-12-16T08:49:13.138Z,7.87
2018-12-16T08:51:42.483Z,8.05
2018-12-16T08:54:11.718Z,8.63
2018-12-16T08:56:40.439Z,9.23
2018-12-16T08:59:10.396Z,8.85
2018-12-16T09:01:39.875Z,9.15
2018-12-16T09:04:09.633Z,9.35
2018-12-16T09:06:38.296Z,9.40
2018-12-16T09:09:10.007Z,9.60
2018-12-16T09:11:39.125Z,9.85
2018-12-16T09:14:07.824Z,10.13
2018-12-16T09:16:37.683Z,11.45
2018-12-16T09:19:07.095Z,11.10
2018-12-16T09:21:38.934Z,11.88
2018-12-16T09:24:08.439Z,12.60
2018-12-16T09:26:38.898Z,13.35
2018-12-16T09:29:09.202Z,13.53
2018-12-16T09:31:39.039Z,13.10
2018-12-16T09:34:07.856Z,13.55
2018-12-16T09:36:38.168Z,14.05
2018-12-16T09:39:07.801Z,14.63
2018-12-16T09:41:36.714Z,14.63
2018-12-16T09:44:05.530Z,14.98
2018-12-16T09:46:34.245Z,14.98
2018-12-16T09:49:02.993Z,15.60
2018-12-16T09:51:31.713Z,15.45
2018-12-16T09:54:00.445Z,15.38
2018-12-16T09:56:29.232Z,15.53
2018-12-16T09:58:58.234Z,17.57
2018-12-16T10:01:26.824Z,17.52
2018-12-16T10:03:55.560Z,18.30
2018-12-16T10:06:24.268Z,18.75
2018-12-16T10:08:53.025Z,18.37
2018-12-16T10:11:21.763Z,18.45
2018-12-16T10:13:50.502Z,19.32
2018-12-16T10:16:19.876Z,18.42
2018-12-16T10:18:49.025Z,19.42
2018-12-16T10:21:18.994Z,19.48
2018-12-16T10:23:47.900Z,20.10
2018-12-16T10:26:16.603Z,19.45
2018-12-16T10:28:45.327Z,19.30
2018-12-16T10:31:13.980Z,20.57
2018-12-16T10:33:42.716Z,18.98
2018-12-16T10:36:11.527Z,20.55
2018-12-16T10:38:40.211Z,20.08
2018-12-16T10:41:09.027Z,19.73
2018-12-16T10:43:37.924Z,19.85
2018-12-16T10:46:06.609Z,20.65
2018-12-16T10:48:35.499Z,20.27
2018-12-16T10:51:04.371Z,19.42
2018-12-16T10:53:33.069Z,20.02
2018-12-16T10:56:04.079Z,20.57
2018-12-16T10:58:32.967Z,19.55
2018-12-16T11:01:07.182Z,20.68
2018-12-16T11:03:35.893Z,19.07
2018-12-16T11:06:04.770Z,19.00
2018-12-16T11:08:34.731Z,19.52
2018-12-16T11:11:03.413Z,20.32
2018-12-16T11:13:32.145Z,18.75
2018-12-16T11:16:00.890Z,18.77
2018-12-16T11:18:29.621Z,19.12
2018-12-16T11:20:58.347Z,19.10
2018-12-16T11:23:27.223Z,19.45
2018-12-16T11:25:56.437Z,18.80
2018-12-16T11:28:25.428Z,19.15
2018-12-16T11:30:54.372Z,19.55
2018-12-16T11:33:23.367Z,19.42
2018-12-16T11:35:52.085Z,19.57
2018-12-16T11:38:21.228Z,21.02
2018-12-16T11:40:50.037Z,20.52
2018-12-16T11:43:18.852Z,20.00
2018-12-16T11:45:47.573Z,20.40
2018-12-16T11:48:16.227Z,20.00
2018-12-16T11:50:45.904Z,20.08
2018-12-16T11:53:15.776Z,20.57
2018-12-16T11:55:44.936Z,19.23
2018-12-16T11:58:13.511Z,19.85
2018-12-16T12:00:42.854Z,20.32
2018-12-16T12:03:12.281Z,19.62
2018-12-16T12:05:40.810Z,19.80
2018-12-16T12:08:09.978Z,20.50
2018-12-16T12:10:39.679Z,20.32
2018-12-16T12:13:08.265Z,21.17
2018-12-16T12:15:37.810Z,20.57
2018-12-16T12:18:08.028Z,19.77
2018-12-16T12:20:36.515Z,20.65
2018-12-16T12:23:05.524Z,20.00
2018-12-16T12:25:35.376Z,22.00
2018-12-16T12:28:04.566Z,20.90
2018-12-16T12:30:33.389Z,19.27
2018-12-16T12:33:02.000Z,20.10
2018-12-16T12:35:30.751Z,20.15
2018-12-16T12:37:59.301Z,20.80
2018-12-16T12:40:27.859Z,21.07
2018-12-16T12:42:57.881Z,20.92
2018-12-16T12:45:26.682Z,20.80
2018-12-16T12:47:55.192Z,21.12
2018-12-16T12:50:23.715Z,21.77
2018-12-16T12:52:54.224Z,21.00
2018-12-16T12:55:26.794Z,21.97
2018-12-16T12:57:53.504Z,20.82
2018-12-16T13:00:23.345Z,20.75
2018-12-16T13:02:51.942Z,20.62
2018-12-16T13:05:20.417Z,21.12
2018-12-16T13:07:49.866Z,20.75
2018-12-16T13:10:19.520Z,21.62
2018-12-16T13:12:47.980Z,21.55
2018-12-16T13:15:17.195Z,21.62
2018-12-16T13:17:46.804Z,21.25
2018-12-16T13:20:15.653Z,22.48
2018-12-16T13:22:44.841Z,21.70
2018-12-16T13:25:20.388Z,21.75
2018-12-16T13:27:48.970Z,21.70
2018-12-16T13:30:17.437Z,21.85
2018-12-16T13:32:46.148Z,21.33
2018-12-16T13:35:14.878Z,21.42
2018-12-16T13:37:43.377Z,22.07
2018-12-16T13:40:11.865Z,22.37
2018-12-16T13:42:40.939Z,21.73
2018-12-16T13:45:09.879Z,22.07
2018-12-16T13:47:39.712Z,21.80
2018-12-16T13:50:09.398Z,21.60
2018-12-16T13:52:39.245Z,21.62
2018-12-16T13:55:09.559Z,22.60
2018-12-16T13:57:39.953Z,22.30
2018-12-16T14:00:09.704Z,22.07
2018-12-16T14:02:39.680Z,23.00
2018-12-16T14:05:08.242Z,24.72
2018-12-16T14:07:37.255Z,24.05
2018-12-16T14:10:07.015Z,25.17
2018-12-16T14:12:37.134Z,24.80
2018-12-16T14:15:05.627Z,24.32
2018-12-16T14:17:34.899Z,24.37
2018-12-16T14:20:03.439Z,24.40
2018-12-16T14:22:32.329Z,24.80
2018-12-16T14:25:02.096Z,24.32
2018-12-16T14:27:30.678Z,24.30
2018-12-16T14:29:59.256Z,24.15
2018-12-16T14:32:27.786Z,24.02
2018-12-16T14:34:56.345Z,23.95
2018-12-16T14:37:24.914Z,24.65
2018-12-16T14:39:53.514Z,24.05
2018-12-16T14:42:22.504Z,23.62
2018-12-16T14:44:51.081Z,23.80
2018-12-16T14:47:38.906Z,24.52
2018-12-16T14:50:08.694Z,23.90
2018-12-16T14:52:38.474Z,23.42
2018-12-16T14:55:07.649Z,23.30
2018-12-16T14:57:37.886Z,24.00
2018-12-16T15:00:07.872Z,22.00
2018-12-16T15:02:36.436Z,22.70
2018-12-16T15:05:05.168Z,22.95
2018-12-16T15:07:33.935Z,23.38
2018-12-16T15:10:02.976Z,22.95
2018-12-16T15:12:31.589Z,22.60
2018-12-16T15:15:01.823Z,23.18
2018-12-16T15:17:31.048Z,22.42
2018-12-16T15:19:59.715Z,23.55
2018-12-16T15:22:28.451Z,22.75
2018-12-16T15:24:58.625Z,23.30
2018-12-16T15:27:28.715Z,23.52
2018-12-16T15:29:58.107Z,23.52
2018-12-16T15:32:26.709Z,22.02
2018-12-16T15:34:55.422Z,23.30
2018-12-16T15:37:24.160Z,22.48
2018-12-16T15:39:52.795Z,23.07
2018-12-16T15:42:21.444Z,23.20
2018-12-16T15:44:51.418Z,23.52
2018-12-16T15:47:20.345Z,22.45
2018-12-16T15:49:50.160Z,21.95
2018-12-16T15:52:18.750Z,23.10
2018-12-16T15:54:47.550Z,22.30
2018-12-16T15:57:17.471Z,23.52
2018-12-16T15:59:47.085Z,22.48
2018-12-16T16:02:15.998Z,22.35
2018-12-16T16:04:44.433Z,22.35
2018-12-16T16:07:13.597Z,21.80
2018-12-16T16:09:42.268Z,22.13
2018-12-16T16:12:10.897Z,21.12
2018-12-16T16:14:39.552Z,21.42
2018-12-16T16:17:08.145Z,21.62
2018-12-16T16:19:36.726Z,21.23
2018-12-16T16:22:05.336Z,21.82
2018-12-16T16:24:34.192Z,21.75
2018-12-16T16:27:02.803Z,21.55
2018-12-16T16:29:31.417Z,21.45
2018-12-16T16:32:01.041Z,21.12
2018-12-16T16:34:29.467Z,21.57
2018-12-16T16:36:58.179Z,21.20
2018-12-16T16:39:27.216Z,20.65
2018-12-16T16:41:56.876Z,20.77
2018-12-16T16:44:25.802Z,21.33
2018-12-16T16:46:54.930Z,20.92
2018-12-16T16:49:24.184Z,20.68
2018-12-16T16:51:54.365Z,20.82
2018-12-16T16:54:23.895Z,20.72
2018-12-16T16:56:52.593Z,20.35
2018-12-16T16:59:21.694Z,20.62
2018-12-16T17:01:51.151Z,19.82
2018-12-16T17:04:19.831Z,20.15
2018-12-16T17:06:48.790Z,20.32
2018-12-16T17:09:17.510Z,19.48
2018-12-16T17:11:46.158Z,20.43
2018-12-16T17:14:15.682Z,19.82
2018-12-16T17:16:44.265Z,19.35
2018-12-16T17:19:13.218Z,19.30
2018-12-16T17:21:42.327Z,18.90
2018-12-16T17:24:12.129Z,19.95
2018-12-16T17:26:40.943Z,19.82
2018-12-16T17:29:09.662Z,19.70
2018-12-16T17:31:39.239Z,19.25
2018-12-16T17:34:08.154Z,19.05
2018-12-16T17:36:36.913Z,19.20
2018-12-16T17:39:07.143Z,18.80
2018-12-16T17:41:37.321Z,19.77
2018-12-16T17:44:06.868Z,18.40
2018-12-16T17:46:35.809Z,19.10
2018-12-16T17:49:04.839Z,18.85
2018-12-16T17:51:33.629Z,18.07
2018-12-16T17:54:02.909Z,17.67
2018-12-16T17:56:37.009Z,18.52
2018-12-16T17:59:03.887Z,18.15
2018-12-16T18:01:34.396Z,18.50
2018-12-16T18:04:05.082Z,17.65
2018-12-16T18:06:34.728Z,18.73
2018-12-16T18:09:05.999Z,17.37
2018-12-16T18:11:34.843Z,17.27
2018-12-16T18:14:03.477Z,17.98
2018-12-16T18:16:32.293Z,17.32
2018-12-16T18:19:01.691Z,18.15
2018-12-16T18:21:30.695Z,17.40
2018-12-16T18:23:59.703Z,16.97
2018-12-16T18:26:29.261Z,17.23
2018-12-16T18:28:58.539Z,17.77
2018-12-16T18:31:27.498Z,17.00
2018-12-16T18:33:57.203Z,17.73
2018-12-16T18:36:26.077Z,17.57
2018-12-16T18:38:55.611Z,17.62
2018-12-16T18:41:25.693Z,17.50
2018-12-16T18:43:55.715Z,16.85
2018-12-16T18:46:24.872Z,16.73
2018-12-16T18:48:53.792Z,17.05
2018-12-16T18:51:24.878Z,16.90
2018-12-16T18:53:54.753Z,16.95
2018-12-16T18:56:24.241Z,16.70
2018-12-16T18:58:52.926Z,16.55
2018-12-16T19:01:22.398Z,17.05
2018-12-16T19:03:52.148Z,16.20
2018-12-16T19:06:21.971Z,16.93
2018-12-16T19:08:51.810Z,16.52
2018-12-16T19:11:21.347Z,16.67
2018-12-16T19:13:50.376Z,16.00
2018-12-16T19:16:19.065Z,16.17
2018-12-16T19:18:48.017Z,16.52
2018-12-16T19:21:17.120Z,16.15
2018-12-16T19:23:45.851Z,16.52
2018-12-16T19:26:15.018Z,15.68
2018-12-16T19:28:43.722Z,15.68
2018-12-16T19:31:13.421Z,16.55
2018-12-16T19:33:42.554Z,15.95
2018-12-16T19:36:12.163Z,16.27
2018-12-16T19:38:41.535Z,15.60
2018-12-16T19:41:11.232Z,16.42
2018-12-16T19:43:40.411Z,15.60
2018-12-16T19:46:09.167Z,16.95
2018-12-16T19:48:38.449Z,16.60
2018-12-16T19:51:07.416Z,15.58
2018-12-16T19:53:36.634Z,15.72
2018-12-16T19:56:05.275Z,15.72
2018-12-16T19:58:35.667Z,15.23
2018-12-16T20:01:06.067Z,15.23
2018-12-16T20:03:38.630Z,15.78
2018-12-16T20:06:13.935Z,15.98
2018-12-16T20:08:42.560Z,15.38
2018-12-16T20:11:12.667Z,15.65
2018-12-16T20:13:41.976Z,15.38
2018-12-16T20:16:11.799Z,16.02
2018-12-16T20:18:40.444Z,15.20
2018-12-16T20:21:09.145Z,15.08
2018-12-16T20:23:38.180Z,14.95
2018-12-16T20:26:08.254Z,15.63
2018-12-16T20:28:38.197Z,14.98
2018-12-16T20:31:07.993Z,15.15
2018-12-16T20:33:38.306Z,15.05
2018-12-16T20:36:08.699Z,14.30
2018-12-16T20:38:37.921Z,14.35
2018-12-16T20:41:07.635Z,14.78
2018-12-16T20:43:36.283Z,14.78
2018-12-16T20:46:04.901Z,15.10
2018-12-16T20:48:34.893Z,14.53
2018-12-16T20:51:03.548Z,14.65
2018-12-16T20:53:32.243Z,14.40
2018-12-16T20:56:01.928Z,14.98
2018-12-16T21:01:42.004Z,14.30
2018-12-16T21:04:10.748Z,14.87
2018-12-16T21:06:39.722Z,15.03
2018-12-16T21:09:09.514Z,14.43
2018-12-16T21:11:43.242Z,14.85
2018-12-16T21:14:17.147Z,13.62
2018-12-16T21:16:52.339Z,14.68
2018-12-16T21:19:21.792Z,14.50
2018-12-16T21:21:50.776Z,14.45
2018-12-16T21:24:20.242Z,14.73
2018-12-16T21:26:49.476Z,14.95
2018-12-16T21:29:18.457Z,14.05
2018-12-16T21:31:48.038Z,14.07
2018-12-16T21:34:16.975Z,14.10
2018-12-16T21:36:46.266Z,14.15
2018-12-16T21:39:16.740Z,13.93
2018-12-16T21:41:45.481Z,13.98
2018-12-16T21:44:14.026Z,13.43
2018-12-16T21:46:42.595Z,13.43
2018-12-16T21:49:11.234Z,14.05
2018-12-16T21:51:41.144Z,14.18
2018-12-16T21:56:55.344Z,13.32
2018-12-16T21:59:24.127Z,13.65
2018-12-16T22:01:52.689Z,13.50
2018-12-16T22:04:22.112Z,13.95
2018-12-16T22:06:50.730Z,13.20
2018-12-16T22:09:19.259Z,14.07
2018-12-16T22:11:47.771Z,13.80
2018-12-16T22:14:16.966Z,13.35
2018-12-16T22:16:45.511Z,13.83
2018-12-16T22:19:14.047Z,13.43
2018-12-16T22:21:42.758Z,14.15
2018-12-16T22:24:12.793Z,13.88
2018-12-16T22:26:42.577Z,13.53
2018-12-16T22:29:11.168Z,12.93
2018-12-16T22:31:41.814Z,13.75
2018-12-16T22:34:10.609Z,13.18
2018-12-16T22:36:40.637Z,13.45
2018-12-16T22:39:09.504Z,12.58
2018-12-16T22:41:37.979Z,13.32
2018-12-16T22:44:06.745Z,13.00
2018-12-16T22:46:35.647Z,13.70
2018-12-16T22:49:04.622Z,13.60
2018-12-16T22:51:34.133Z,13.40
2018-12-16T22:54:02.773Z,13.62
2018-12-16T22:56:31.958Z,12.80
2018-12-16T22:59:01.678Z,13.03
2018-12-16T23:01:30.333Z,13.58
2018-12-16T23:03:59.892Z,13.88
2018-12-16T23:06:29.246Z,13.22
2018-12-16T23:08:57.859Z,13.20
2018-12-16T23:11:26.701Z,13.40
2018-12-16T23:13:56.394Z,13.32
2018-12-16T23:16:24.970Z,12.80
2018-12-16T23:18:53.576Z,12.43
2018-12-16T23:21:23.012Z,12.93
2018-12-16T23:23:52.647Z,13.00
2018-12-16T23:26:21.916Z,12.93
2018-12-16T23:28:51.750Z,13.15
2018-12-16T23:31:20.748Z,12.65
2018-12-16T23:33:49.227Z,12.90
2018-12-16T23:36:17.711Z,13.43
2018-12-16T23:38:47.941Z,13.53
2018-12-16T23:41:16.412Z,12.93
2018-12-16T23:43:44.980Z,13.03
2018-12-16T23:46:13.494Z,12.58
2018-12-16T23:48:42.045Z,13.20
2018-12-16T23:51:10.647Z,12.35
2018-12-16T23:53:40.582Z,13.40
2018-12-16T23:56:09.238Z,13.05
2018-12-16T23:58:37.697Z,13.05
